Terminal Aerodrome Forecast
Issued by NWS

Home | Current Version | Previous Version | Text Only | Print | Product List | Glossary On
Versions: 1 2 3 4 5 6 7 8 9 10 11 12 13 14 15 16 17 18
000
FTUS41 KRNK 200520
TAFBCB
TAF
KBCB 200520Z 2006/2106 19004KT 3SM BR BKN004 WS020/22035KT
      TEMPO 2006/2009 1/4SM FG OVC003
     FM200900 19004KT 1/4SM -DZ FG OVC003 WS020/22035KT
     FM201100 20004KT 1/4SM -DZ FG OVC003
     FM201300 20005KT 5SM -DZ BR SCT010
      TEMPO 2013/2014 1SM BR
     FM201400 21006KT P6SM SCT030
     FM201600 21007KT P6SM SCT250
     FM210300 20006KT P6SM SCT003=

USA.gov is the U.S. government's official web portal to all federal, state and local government web resources and services.